Aviation Digital Data Service (ADDS)

Output produced by METARs form (1346 UTC 26 May 2018)
found at http://www.aviationweather.gov/adds/metars/
 
RCTP 261330Z 22003KT 160V300 9999 FEW020 SCT150 28/24 Q1008 NOSIG RMK A2977
TAF RCTP 261100Z 2612/2718 22013KT 9999 FEW015 BKN100 
     TEMPO 2618/2624 20008KT 
     BECMG 2701/2703 22018KT 
     TEMPO 2710/2716 20013KT 
       
RCMQ 261330Z 20007KT 9999 FEW012 BKN040 27/25 Q1009 NOSIG RMK A2981
TAF RCMQ 261100Z 2612/2712 23008KT 9999 FEW012 BKN100 TX31/2706Z TN26/2620Z 
     BECMG 2613/2616 FEW012 SCT040 
     BECMG 2617/2620 18004KT 7000 FEW012 BKN050 
     BECMG 2621/2700 20010KT 9999 FEW012 SCT030 
     BECMG 2701/2704 22015KT 
     BECMG 2708/2711 23008KT
       
RCFN 261200Z VRB02KT CAVOK 27/26 Q1008 NOSIG RMK A2978
TAF RCFN 261100Z 2612/2712 33005KT 9999 FEW015 
     BECMG 2701/2703 12005KT 
     BECMG 2711/2712 33005KT 
       
RCKH 261330Z 31005KT 260V040 9999 FEW018 SCT220 29/25 Q1009 NOSIG RMK A2981
TAF RCKH 261100Z 2612/2718 05005KT 9999 FEW015 BKN100 
     TEMPO 2612/2618 30008KT 
     BECMG 2701/2703 28005KT 
     TEMPO 2706/2712 22010KT 
     BECMG 2713/2715 05005KT
       
RCSS 261330Z VRB02KT 9999 FEW020 30/24 Q1007 NOSIG RMK A2976
TAF RCSS 261100Z 2612/2712 28008KT 9999 FEW015 BKN100
       
RCNN 261330Z 00000KT 9999 FEW012 BKN100 25/23 Q1009 RMK A2980
TAF RCNN 261100Z 2612/2712 08004KT 9999 FEW012 BKN100 TX32/2706Z TN23/2620Z 
     TEMPO 2620/2624 8000 FEW012 
     BECMG 2701/2704 27010KT FEW012